createdAt,value
2023-04-27T00:00:38.693Z,80.41
2023-04-27T00:01:38.665Z,80.10
2023-04-27T00:02:38.743Z,80.20
2023-04-27T00:03:38.761Z,79.38
2023-04-27T00:04:38.847Z,78.90
2023-04-27T00:05:38.659Z,79.83
2023-04-27T00:06:38.610Z,79.48
2023-04-27T00:07:38.586Z,80.00
2023-04-27T00:08:38.568Z,80.51
2023-04-27T00:09:38.560Z,79.90
2023-04-27T00:10:38.538Z,78.97
2023-04-27T00:11:38.531Z,79.07
2023-04-27T00:12:38.571Z,79.48
2023-04-27T00:13:38.493Z,79.79
2023-04-27T00:14:38.499Z,79.31
2023-04-27T00:15:38.568Z,80.00
2023-04-27T00:16:38.475Z,79.21
2023-04-27T00:17:38.478Z,79.27
2023-04-27T00:18:38.453Z,79.07
2023-04-27T00:19:38.534Z,78.86
2023-04-27T00:20:38.420Z,78.76
2023-04-27T00:21:38.431Z,78.55
2023-04-27T00:22:38.392Z,79.00
2023-04-27T00:23:38.385Z,79.17
2023-04-27T00:24:38.393Z,79.21
2023-04-27T00:25:38.571Z,78.97
2023-04-27T00:26:38.352Z,79.17
2023-04-27T00:27:38.356Z,79.69
2023-04-27T00:28:38.338Z,80.00
2023-04-27T00:29:38.331Z,79.90
2023-04-27T00:30:38.333Z,79.90
2023-04-27T00:31:38.451Z,80.00
2023-04-27T00:32:38.366Z,79.58
2023-04-27T00:33:38.268Z,79.69
2023-04-27T00:34:38.320Z,78.76
2023-04-27T00:35:38.335Z,79.27
2023-04-27T00:36:38.233Z,79.48
2023-04-27T00:37:38.240Z,79.27
2023-04-27T00:38:38.237Z,80.10
2023-04-27T00:39:38.232Z,79.79
2023-04-27T00:40:38.237Z,80.20
2023-04-27T00:41:38.215Z,80.62
2023-04-27T00:42:38.175Z,80.51
2023-04-27T00:43:38.170Z,80.62
2023-04-27T00:44:39.812Z,80.34
2023-04-27T00:45:38.206Z,80.41
2023-04-27T00:46:38.181Z,80.20
2023-04-27T00:47:38.295Z,80.20
2023-04-27T00:48:38.121Z,80.62
2023-04-27T00:49:38.107Z,80.41
2023-04-27T00:50:38.153Z,80.34
2023-04-27T00:51:38.098Z,80.34
2023-04-27T00:52:38.116Z,80.24
2023-04-27T00:53:38.068Z,79.31
2023-04-27T00:54:38.054Z,80.24
2023-04-27T00:55:38.149Z,80.30
2023-04-27T00:56:38.031Z,80.04
2023-04-27T00:57:38.014Z,80.96
2023-04-27T00:58:38.043Z,79.93
2023-04-27T00:59:37.988Z,79.00
2023-04-27T01:00:37.990Z,79.31
2023-04-27T01:01:37.995Z,79.21
2023-04-27T01:02:38.600Z,79.31
2023-04-27T01:03:38.163Z,80.04
2023-04-27T01:04:38.043Z,80.44
2023-04-27T01:05:37.928Z,80.55
2023-04-27T01:06:37.926Z,80.76
2023-04-27T01:07:37.918Z,80.82
2023-04-27T01:08:37.895Z,80.76
2023-04-27T01:09:37.953Z,80.93
2023-04-27T01:10:37.871Z,80.62
2023-04-27T01:11:37.872Z,81.13
2023-04-27T01:12:37.857Z,80.76
2023-04-27T01:13:37.861Z,80.82
2023-04-27T01:14:37.828Z,81.03
2023-04-27T01:15:37.891Z,80.20
2023-04-27T01:16:37.851Z,80.72
2023-04-27T01:17:37.837Z,80.72
2023-04-27T01:18:37.798Z,80.51
2023-04-27T01:19:38.028Z,80.41
2023-04-27T01:20:37.769Z,80.34
2023-04-27T01:21:37.753Z,80.51
2023-04-27T01:22:37.828Z,80.41
2023-04-27T01:23:37.743Z,81.23
2023-04-27T01:24:37.724Z,81.34
2023-04-27T01:25:37.796Z,81.23
2023-04-27T01:26:37.691Z,80.93
2023-04-27T01:27:37.688Z,81.23
2023-04-27T01:28:37.688Z,81.03
2023-04-27T01:29:37.680Z,81.23
2023-04-27T01:30:37.655Z,80.51
2023-04-27T01:31:37.719Z,81.03
2023-04-27T01:32:37.683Z,80.62
2023-04-27T01:33:37.642Z,80.72
2023-04-27T01:34:37.608Z,80.41
2023-04-27T01:35:37.638Z,80.72
2023-04-27T01:36:37.606Z,80.30
2023-04-27T01:37:37.632Z,80.93
2023-04-27T01:38:37.571Z,81.03
2023-04-27T01:39:37.578Z,81.23
2023-04-27T01:40:37.571Z,81.34
2023-04-27T01:41:37.555Z,80.93
2023-04-27T01:42:37.540Z,81.23
2023-04-27T01:43:37.520Z,81.13
2023-04-27T01:44:37.500Z,80.82
2023-04-27T01:45:37.540Z,80.72
2023-04-27T01:46:37.524Z,81.23
2023-04-27T01:47:37.583Z,80.93
2023-04-27T01:48:37.457Z,81.07
2023-04-27T01:49:37.449Z,80.51
2023-04-27T01:50:58.502Z,80.82
2023-04-27T01:51:59.292Z,80.51
2023-04-27T01:52:58.435Z,80.93
2023-04-27T01:53:58.516Z,80.82
2023-04-27T01:54:37.392Z,80.10
2023-04-27T01:55:37.382Z,80.62
2023-04-27T01:56:58.374Z,80.41
2023-04-27T01:57:58.384Z,79.69
2023-04-27T01:58:58.361Z,78.86
2023-04-27T01:59:58.356Z,78.90
2023-04-27T02:00:37.326Z,78.97
2023-04-27T02:01:37.378Z,78.97
2023-04-27T02:02:37.383Z,79.69
2023-04-27T02:03:37.492Z,80.41
2023-04-27T02:04:58.307Z,80.82
2023-04-27T02:05:37.276Z,81.23
2023-04-27T02:06:37.288Z,80.93
2023-04-27T02:07:58.324Z,80.82
2023-04-27T02:08:37.266Z,81.34
2023-04-27T02:09:37.274Z,80.62
2023-04-27T02:10:58.234Z,81.44
2023-04-27T02:11:37.220Z,81.27
2023-04-27T02:12:37.210Z,81.58
2023-04-27T02:13:58.189Z,81.37
2023-04-27T02:14:37.202Z,81.79
2023-04-27T02:15:37.191Z,81.58
2023-04-27T02:16:37.223Z,81.82
2023-04-27T02:17:37.203Z,82.03
2023-04-27T02:18:58.147Z,81.48
2023-04-27T02:19:37.130Z,81.72
2023-04-27T02:20:37.179Z,81.62
2023-04-27T02:21:58.153Z,81.82
2023-04-27T02:22:37.093Z,81.62
2023-04-27T02:23:37.084Z,82.14
2023-04-27T02:24:58.355Z,82.03
2023-04-27T02:25:37.066Z,82.34
2023-04-27T02:26:37.062Z,82.03
2023-04-27T02:27:58.066Z,81.86
2023-04-27T02:28:58.170Z,81.93
2023-04-27T02:29:58.030Z,81.86
2023-04-27T02:30:58.019Z,82.48
2023-04-27T02:31:58.117Z,82.89
2023-04-27T02:32:58.064Z,83.20
2023-04-27T02:33:58.034Z,82.69
2023-04-27T02:34:57.973Z,83.00
2023-04-27T02:35:57.964Z,83.10
2023-04-27T02:36:57.955Z,83.14
2023-04-27T02:37:57.999Z,82.83
2023-04-27T02:38:57.938Z,82.83
2023-04-27T02:39:57.936Z,83.34
2023-04-27T02:40:57.955Z,83.39
2023-04-27T02:41:58.311Z,83.34
2023-04-27T02:42:57.875Z,83.34
2023-04-27T02:43:57.864Z,84.28
2023-04-27T02:44:57.886Z,83.45
2023-04-27T02:45:57.833Z,83.65
2023-04-27T02:46:57.910Z,83.97
2023-04-27T02:47:57.860Z,83.76
2023-04-27T02:48:57.804Z,83.65
2023-04-27T02:49:57.839Z,83.62
2023-04-27T02:50:57.808Z,83.83
2023-04-27T02:51:57.794Z,83.83
2023-04-27T02:52:57.782Z,83.72
2023-04-27T02:53:57.807Z,83.83
2023-04-27T02:54:57.750Z,83.72
2023-04-27T02:55:57.751Z,84.13
2023-04-27T02:56:57.767Z,84.23
2023-04-27T02:57:57.718Z,83.72
2023-04-27T02:58:57.725Z,83.51
2023-04-27T02:59:57.716Z,83.41
2023-04-27T03:00:57.905Z,82.89
2023-04-27T03:01:57.683Z,83.62
2023-04-27T03:02:57.845Z,83.31
2023-04-27T03:03:57.902Z,83.17
2023-04-27T03:04:57.651Z,83.20
2023-04-27T03:05:57.694Z,83.99
2023-04-27T03:06:57.622Z,82.75
2023-04-27T03:07:57.628Z,82.65
2023-04-27T03:08:36.604Z,83.06
2023-04-27T03:09:57.597Z,82.45
2023-04-27T03:10:57.586Z,82.45
2023-04-27T03:11:57.638Z,82.65
2023-04-27T03:12:57.568Z,82.86
2023-04-27T03:13:57.555Z,83.48
2023-04-27T03:14:57.539Z,83.06
2023-04-27T03:15:57.603Z,83.58
2023-04-27T03:16:57.619Z,83.37
2023-04-27T03:17:57.546Z,84.09
2023-04-27T03:18:57.628Z,83.06
2023-04-27T03:19:57.500Z,83.27
2023-04-27T03:20:57.479Z,83.06
2023-04-27T03:21:36.452Z,83.37
2023-04-27T03:22:36.452Z,83.99
2023-04-27T03:23:36.443Z,83.48
2023-04-27T03:24:36.425Z,83.27
2023-04-27T03:25:36.572Z,83.27
2023-04-27T03:26:36.399Z,83.10
2023-04-27T03:27:36.396Z,82.89
2023-04-27T03:28:36.371Z,83.48
2023-04-27T03:29:36.378Z,83.93
2023-04-27T03:30:36.371Z,84.23
2023-04-27T03:31:36.375Z,84.81
2023-04-27T03:32:36.358Z,84.86
2023-04-27T03:33:36.324Z,84.86
2023-04-27T03:34:36.418Z,84.61
2023-04-27T03:35:36.297Z,84.51
2023-04-27T03:36:36.295Z,84.55
2023-04-27T03:37:36.289Z,84.81
2023-04-27T03:38:36.282Z,83.72
2023-04-27T03:39:36.254Z,83.83
2023-04-27T03:40:36.397Z,83.10
2023-04-27T03:41:36.235Z,83.10
2023-04-27T03:42:36.236Z,83.20
2023-04-27T03:43:36.204Z,83.17
2023-04-27T03:44:36.227Z,83.31
2023-04-27T03:45:36.240Z,83.10
2023-04-27T03:46:36.200Z,83.31
2023-04-27T03:47:36.337Z,83.10
2023-04-27T03:48:36.170Z,83.17
2023-04-27T03:49:36.154Z,83.99
2023-04-27T03:50:36.130Z,83.78
2023-04-27T03:51:36.182Z,84.09
2023-04-27T03:52:36.105Z,84.34
2023-04-27T03:53:36.092Z,83.99
2023-04-27T03:54:36.097Z,83.51
2023-04-27T03:55:36.089Z,83.78
2023-04-27T03:56:36.074Z,83.68
2023-04-27T03:57:36.068Z,83.83
2023-04-27T03:58:36.044Z,83.48
2023-04-27T03:59:36.030Z,83.68
2023-04-27T04:00:36.047Z,83.99
2023-04-27T04:01:36.002Z,83.93
2023-04-27T04:02:36.173Z,83.58
2023-04-27T04:03:36.060Z,83.78
2023-04-27T04:04:36.203Z,83.99
2023-04-27T04:05:35.968Z,84.92
2023-04-27T04:06:35.971Z,84.61
2023-04-27T04:07:35.954Z,84.30
2023-04-27T04:08:35.952Z,84.72
2023-04-27T04:09:35.918Z,84.61
2023-04-27T04:10:35.924Z,84.72
2023-04-27T04:11:35.952Z,84.34
2023-04-27T04:12:35.910Z,84.51
2023-04-27T04:13:35.948Z,85.06
2023-04-27T04:14:35.887Z,84.09
2023-04-27T04:15:35.888Z,83.89
2023-04-27T04:16:35.854Z,83.78
2023-04-27T04:17:35.862Z,83.48
2023-04-27T04:18:35.855Z,83.78
2023-04-27T04:19:35.819Z,83.68
2023-04-27T04:20:35.810Z,83.78
2023-04-27T04:21:35.788Z,83.89
2023-04-27T04:22:35.774Z,83.89
2023-04-27T04:23:35.776Z,84.09
2023-04-27T04:24:35.797Z,85.02
2023-04-27T04:25:35.746Z,85.02
2023-04-27T04:26:35.749Z,84.09
2023-04-27T04:27:35.718Z,84.06
2023-04-27T04:28:35.710Z,84.81
2023-04-27T04:29:35.734Z,84.92
2023-04-27T04:30:35.691Z,84.41
2023-04-27T04:31:35.694Z,84.51
2023-04-27T04:32:35.716Z,84.61
2023-04-27T04:33:35.655Z,84.72
2023-04-27T04:34:35.696Z,84.51
2023-04-27T04:35:35.636Z,84.61
2023-04-27T04:36:35.655Z,84.72
2023-04-27T04:37:35.613Z,84.30
2023-04-27T04:38:35.654Z,84.72
2023-04-27T04:39:35.605Z,83.68
2023-04-27T04:40:35.603Z,84.81
2023-04-27T04:41:35.587Z,84.72
2023-04-27T04:42:35.707Z,84.72
2023-04-27T04:43:35.551Z,84.92
2023-04-27T04:44:35.547Z,84.30
2023-04-27T04:45:35.582Z,84.72
2023-04-27T04:46:35.586Z,84.44
2023-04-27T04:47:35.562Z,84.55
2023-04-27T04:48:35.567Z,85.27
2023-04-27T04:49:35.505Z,85.47
2023-04-27T04:50:35.488Z,85.58
2023-04-27T04:51:35.472Z,85.68
2023-04-27T04:52:35.510Z,85.78
2023-04-27T04:53:35.512Z,85.75
2023-04-27T04:54:35.433Z,85.99
2023-04-27T04:55:35.424Z,85.17
2023-04-27T04:56:35.415Z,84.92
2023-04-27T04:57:35.403Z,86.10
2023-04-27T04:58:35.412Z,85.64
2023-04-27T04:59:35.474Z,85.37
2023-04-27T05:00:35.377Z,85.54
2023-04-27T05:01:35.449Z,85.95
2023-04-27T05:03:29.085Z,85.75
2023-04-27T05:04:28.794Z,85.44
2023-04-27T05:05:27.716Z,85.64
2023-04-27T05:06:27.813Z,85.54
2023-04-27T05:07:27.680Z,84.92
2023-04-27T05:08:27.643Z,84.41
2023-04-27T05:09:27.617Z,84.72
2023-04-27T05:10:27.617Z,84.41
2023-04-27T05:11:27.633Z,85.02
2023-04-27T05:12:27.647Z,84.51
2023-04-27T05:13:27.568Z,85.02
2023-04-27T05:14:27.565Z,84.41
2023-04-27T05:15:27.569Z,84.92
2023-04-27T05:16:27.620Z,84.75
2023-04-27T05:17:27.626Z,84.75
2023-04-27T05:18:27.564Z,85.44
2023-04-27T05:19:27.515Z,85.54
2023-04-27T05:20:27.505Z,84.92
2023-04-27T05:21:27.504Z,84.96
2023-04-27T05:22:27.484Z,84.81
2023-04-27T05:23:27.503Z,84.96
2023-04-27T05:24:27.474Z,84.72
2023-04-27T05:25:27.448Z,84.61
2023-04-27T05:26:27.444Z,84.72
2023-04-27T05:27:27.433Z,84.92
2023-04-27T05:28:27.521Z,84.72
2023-04-27T05:29:27.403Z,84.72
2023-04-27T05:30:27.413Z,84.41
2023-04-27T05:31:27.449Z,84.78
2023-04-27T05:32:27.397Z,84.57
2023-04-27T05:33:27.395Z,84.57
2023-04-27T05:34:27.368Z,84.88
2023-04-27T05:35:27.352Z,84.84
2023-04-27T05:36:27.346Z,84.74
2023-04-27T05:37:27.351Z,84.94
2023-04-27T05:38:27.307Z,84.84
2023-04-27T05:39:27.329Z,83.91
2023-04-27T05:40:27.480Z,84.53
2023-04-27T05:41:27.307Z,83.61
2023-04-27T05:42:27.286Z,83.47
2023-04-27T05:43:27.254Z,83.77
2023-04-27T05:44:27.359Z,83.26
2023-04-27T05:45:27.237Z,83.56
2023-04-27T05:46:27.369Z,82.68
2023-04-27T05:47:27.298Z,83.15
2023-04-27T05:48:27.206Z,83.05
2023-04-27T05:49:27.242Z,83.81
2023-04-27T05:50:27.189Z,83.15
2023-04-27T05:51:27.169Z,83.36
2023-04-27T05:52:27.173Z,82.54
2023-04-27T05:53:27.274Z,82.43
2023-04-27T05:54:27.137Z,82.64
2023-04-27T05:55:27.165Z,82.54
2023-04-27T05:56:27.112Z,82.40
2023-04-27T05:57:27.116Z,82.91
2023-04-27T05:58:27.108Z,82.67
2023-04-27T05:59:27.089Z,81.39
2023-04-27T06:00:27.072Z,80.98
2023-04-27T06:01:27.129Z,80.26
2023-04-27T06:02:27.152Z,80.57
2023-04-27T06:03:27.454Z,80.43
2023-04-27T06:04:27.510Z,80.70
2023-04-27T06:05:27.164Z,79.98
2023-04-27T06:06:27.037Z,78.54
2023-04-27T06:07:26.995Z,78.44
2023-04-27T06:08:26.998Z,78.75
2023-04-27T06:09:26.987Z,79.05
2023-04-27T06:10:26.994Z,78.85
2023-04-27T06:11:26.966Z,78.54
2023-04-27T06:12:27.039Z,78.64
2023-04-27T06:13:26.979Z,78.09
2023-04-27T06:14:26.946Z,78.09
2023-04-27T06:15:26.929Z,77.17
2023-04-27T06:16:26.985Z,77.44
2023-04-27T06:17:26.902Z,77.68
2023-04-27T06:18:26.886Z,77.41
2023-04-27T06:19:26.902Z,76.90
2023-04-27T06:20:26.968Z,77.00
2023-04-27T06:21:26.885Z,77.10
2023-04-27T06:22:26.861Z,76.59
2023-04-27T06:23:26.881Z,76.65
2023-04-27T06:24:26.819Z,76.76
2023-04-27T06:25:27.405Z,75.90
2023-04-27T06:26:26.838Z,76.07
2023-04-27T06:27:26.792Z,75.32
2023-04-27T06:28:26.790Z,75.08
2023-04-27T06:29:26.768Z,74.05
2023-04-27T06:30:26.783Z,72.89
2023-04-27T06:31:26.804Z,72.48
2023-04-27T06:32:26.762Z,72.14
2023-04-27T06:33:26.733Z,71.62
2023-04-27T06:34:26.768Z,71.93
2023-04-27T06:35:26.750Z,72.61
2023-04-27T06:36:26.702Z,72.31
2023-04-27T06:37:26.754Z,72.92
2023-04-27T06:38:26.743Z,70.03
2023-04-27T06:39:26.668Z,69.61
2023-04-27T06:40:26.663Z,69.71
2023-04-27T06:41:26.654Z,69.68
2023-04-27T06:42:26.648Z,68.66
2023-04-27T06:43:26.838Z,69.55
2023-04-27T06:44:26.610Z,68.01
2023-04-27T06:45:26.604Z,68.52
2023-04-27T06:46:26.678Z,68.52
2023-04-27T06:47:26.617Z,69.14
2023-04-27T06:48:26.639Z,69.52
2023-04-27T06:49:26.565Z,69.18
2023-04-27T06:50:26.552Z,67.75
2023-04-27T06:51:26.841Z,67.61
2023-04-27T06:52:26.587Z,66.77
2023-04-27T06:53:26.528Z,65.34
2023-04-27T06:54:26.545Z,65.74
2023-04-27T06:55:26.546Z,66.25
2023-04-27T06:56:26.545Z,66.22
2023-04-27T06:57:26.520Z,65.41
2023-04-27T06:58:26.630Z,65.41
2023-04-27T06:59:26.590Z,65.28
2023-04-27T07:00:26.450Z,65.48
2023-04-27T07:01:26.683Z,63.92
2023-04-27T07:02:26.464Z,65.07
2023-04-27T07:03:26.808Z,65.55
2023-04-27T07:04:26.723Z,63.92
2023-04-27T07:05:26.472Z,63.51
2023-04-27T07:06:26.456Z,63.13
2023-04-27T07:07:26.476Z,64.56
2023-04-27T07:08:26.468Z,65.07
2023-04-27T07:09:27.798Z,64.05
2023-04-27T07:10:26.690Z,65.25
2023-04-27T07:11:26.383Z,64.02
2023-04-27T07:12:26.592Z,64.40
2023-04-27T07:13:26.501Z,63.24
2023-04-27T07:14:26.355Z,62.63
2023-04-27T07:15:26.654Z,62.74
2023-04-27T07:16:26.707Z,61.90
2023-04-27T07:17:26.384Z,62.17
2023-04-27T07:18:26.311Z,61.15
2023-04-27T07:19:26.456Z,59.89
2023-04-27T07:20:26.400Z,61.72
2023-04-27T07:21:26.376Z,62.94
2023-04-27T07:22:26.422Z,62.63
2023-04-27T07:23:26.355Z,61.41
2023-04-27T07:24:26.349Z,60.88
2023-04-27T07:25:26.574Z,60.57
2023-04-27T07:26:26.398Z,60.68
2023-04-27T07:27:26.311Z,59.86
2023-04-27T07:28:26.296Z,61.29
2023-04-27T07:29:27.548Z,60.19
2023-04-27T07:30:26.376Z,62.63
2023-04-27T07:31:26.592Z,61.21
2023-04-27T07:32:26.349Z,61.18
2023-04-27T07:33:26.230Z,60.27
2023-04-27T07:34:27.933Z,59.83
2023-04-27T07:35:26.459Z,61.36
2023-04-27T07:36:26.404Z,59.53
2023-04-27T07:37:26.243Z,59.53
2023-04-27T07:38:26.143Z,57.87
2023-04-27T07:39:26.526Z,59.60
2023-04-27T07:40:26.194Z,59.98
2023-04-27T07:41:26.787Z,58.15
2023-04-27T07:42:26.248Z,57.34
2023-04-27T07:43:26.294Z,57.74
2023-04-27T07:44:26.076Z,57.03
2023-04-27T07:45:26.192Z,56.24
2023-04-27T07:46:26.172Z,57.72
2023-04-27T07:47:26.240Z,58.28
2023-04-27T07:48:26.363Z,60.80
2023-04-27T07:49:26.342Z,61.21
2023-04-27T07:50:26.154Z,62.92
2023-04-27T07:51:26.261Z,62.55
2023-04-27T07:52:26.187Z,58.76
2023-04-27T07:53:26.180Z,57.90
2023-04-27T07:54:27.087Z,59.61
2023-04-27T07:55:26.154Z,61.04
2023-04-27T07:56:26.137Z,61.44
2023-04-27T07:57:26.136Z,59.58
2023-04-27T07:58:25.976Z,59.63
2023-04-27T07:59:26.103Z,58.99
2023-04-27T08:00:26.077Z,59.19
2023-04-27T08:01:26.094Z,59.03
2023-04-27T08:02:26.269Z,58.60
2023-04-27T08:03:26.178Z,56.60
2023-04-27T08:04:26.385Z,59.11
2023-04-27T08:05:26.476Z,57.79
2023-04-27T08:06:26.273Z,57.86
2023-04-27T08:07:26.113Z,56.41
2023-04-27T08:08:25.858Z,55.50
2023-04-27T08:09:25.887Z,55.47
2023-04-27T08:10:25.883Z,54.26
2023-04-27T08:11:25.760Z,54.26
2023-04-27T08:12:25.807Z,55.12
2023-04-27T08:13:25.820Z,56.44
2023-04-27T08:14:25.842Z,55.55
2023-04-27T08:15:25.828Z,55.99
2023-04-27T08:16:25.884Z,57.38
2023-04-27T08:17:25.747Z,56.57
2023-04-27T08:18:26.133Z,56.65
2023-04-27T08:19:25.780Z,56.34
2023-04-27T08:20:25.729Z,55.53
2023-04-27T08:21:25.928Z,55.80
2023-04-27T08:22:25.775Z,55.71
2023-04-27T08:23:25.662Z,55.27
2023-04-27T08:24:25.753Z,55.76
2023-04-27T08:25:25.764Z,56.16
2023-04-27T08:26:26.470Z,54.26
2023-04-27T08:27:25.624Z,55.91
2023-04-27T08:28:25.549Z,54.39
2023-04-27T08:29:28.376Z,56.21
2023-04-27T08:30:25.676Z,56.13
2023-04-27T08:31:25.750Z,57.03
2023-04-27T08:32:25.592Z,54.59
2023-04-27T08:33:25.636Z,54.77
2023-04-27T08:34:25.695Z,56.18
2023-04-27T08:35:25.576Z,55.47
2023-04-27T08:36:25.582Z,54.24
2023-04-27T08:37:25.564Z,53.72
2023-04-27T08:38:25.763Z,52.89
2023-04-27T08:39:25.660Z,52.97
2023-04-27T08:40:25.534Z,54.28
2023-04-27T08:41:25.486Z,51.86
2023-04-27T08:42:25.473Z,51.53
2023-04-27T08:43:25.498Z,51.73
2023-04-27T08:44:25.468Z,51.73
2023-04-27T08:45:25.387Z,51.83
2023-04-27T08:46:25.360Z,51.83
2023-04-27T08:47:38.660Z,52.54
2023-04-27T08:48:25.418Z,51.95
2023-04-27T08:49:25.308Z,53.27
2023-04-27T08:50:25.336Z,51.95
2023-04-27T08:51:25.304Z,52.66
2023-04-27T08:52:25.381Z,53.45
2023-04-27T08:53:25.354Z,52.74
2023-04-27T08:54:25.364Z,51.81
2023-04-27T08:55:25.289Z,52.51
2023-04-27T08:56:25.437Z,51.60
2023-04-27T08:57:25.300Z,52.01
2023-04-27T08:58:25.240Z,52.89
2023-04-27T08:59:25.156Z,52.21
2023-04-27T09:00:25.269Z,52.33
2023-04-27T09:01:25.251Z,51.32
2023-04-27T09:02:25.260Z,50.31
2023-04-27T09:03:25.260Z,49.80
2023-04-27T09:04:25.347Z,51.70
2023-04-27T09:05:25.138Z,51.57
2023-04-27T09:06:25.193Z,52.08
2023-04-27T09:07:26.206Z,50.46
2023-04-27T09:08:25.066Z,51.45
2023-04-27T09:09:25.078Z,51.05
2023-04-27T09:10:25.098Z,50.37
2023-04-27T09:11:25.020Z,50.89
2023-04-27T09:12:25.039Z,51.70
2023-04-27T09:13:25.005Z,52.39
2023-04-27T09:14:25.039Z,51.68
2023-04-27T09:15:25.014Z,50.37
2023-04-27T09:16:24.990Z,51.30
2023-04-27T09:17:25.108Z,50.69
2023-04-27T09:18:24.957Z,51.90
2023-04-27T09:19:25.089Z,52.21
2023-04-27T09:20:24.953Z,50.38
2023-04-27T09:21:24.931Z,50.79
2023-04-27T09:22:24.927Z,50.89
2023-04-27T09:23:24.926Z,50.71
2023-04-27T09:24:24.932Z,50.11
2023-04-27T09:25:24.925Z,51.62
2023-04-27T09:26:24.870Z,50.99
2023-04-27T09:27:24.875Z,50.29
2023-04-27T09:28:24.858Z,49.38
2023-04-27T09:29:24.897Z,50.79
2023-04-27T09:30:24.936Z,50.87
2023-04-27T09:31:24.849Z,50.84
2023-04-27T09:32:24.906Z,48.82
2023-04-27T09:33:25.327Z,48.72
2023-04-27T09:34:25.025Z,49.51
2023-04-27T09:35:24.777Z,50.82
2023-04-27T09:36:24.801Z,50.21
2023-04-27T09:37:24.848Z,48.19
2023-04-27T09:38:24.759Z,49.71
2023-04-27T09:39:24.736Z,50.59
2023-04-27T09:40:24.729Z,50.59
2023-04-27T09:41:24.729Z,48.37
2023-04-27T09:42:24.696Z,46.98
2023-04-27T09:43:24.676Z,48.34
2023-04-27T09:44:24.718Z,50.21
2023-04-27T09:45:24.713Z,51.95
2023-04-27T09:46:24.821Z,50.13
2023-04-27T09:47:24.712Z,49.75
2023-04-27T09:48:24.670Z,50.76
2023-04-27T09:49:24.742Z,51.67
2023-04-27T09:50:24.675Z,51.25
2023-04-27T09:51:24.647Z,50.43
2023-04-27T09:52:24.589Z,49.70
2023-04-27T09:53:24.644Z,48.69
2023-04-27T09:54:24.690Z,51.22
2023-04-27T09:55:24.562Z,50.31
2023-04-27T09:56:24.561Z,50.89
2023-04-27T09:57:24.557Z,51.81
2023-04-27T09:58:24.537Z,51.98
2023-04-27T09:59:24.555Z,50.34
2023-04-27T10:00:24.560Z,50.44
2023-04-27T10:01:24.613Z,48.22
2023-04-27T10:02:25.670Z,50.42
2023-04-27T10:03:24.510Z,48.95
2023-04-27T10:04:24.573Z,49.19
2023-04-27T10:05:24.602Z,48.18
2023-04-27T10:06:36.990Z,50.84
2023-04-27T10:07:24.684Z,50.54
2023-04-27T10:08:24.749Z,50.74
2023-04-27T10:09:25.044Z,51.95
2023-04-27T10:10:24.495Z,52.03
2023-04-27T10:11:24.458Z,49.80
2023-04-27T10:12:24.424Z,50.51
2023-04-27T10:13:24.455Z,50.61
2023-04-27T10:14:24.341Z,51.53
2023-04-27T10:15:24.358Z,52.01
2023-04-27T10:16:24.444Z,49.98
2023-04-27T10:17:24.393Z,50.26
2023-04-27T10:18:24.346Z,48.74
2023-04-27T10:19:24.325Z,49.53
2023-04-27T10:20:24.336Z,48.74
2023-04-27T10:21:24.321Z,49.58
2023-04-27T10:22:24.273Z,49.98
2023-04-27T10:23:24.702Z,50.26
2023-04-27T10:24:24.274Z,48.03
2023-04-27T10:25:24.225Z,48.57
2023-04-27T10:26:24.209Z,49.30
2023-04-27T10:27:24.243Z,51.04
2023-04-27T10:28:24.222Z,50.94
2023-04-27T10:29:24.273Z,51.04
2023-04-27T10:30:24.195Z,49.93
2023-04-27T10:31:24.254Z,48.33
2023-04-27T10:32:24.234Z,50.05
2023-04-27T10:33:24.138Z,50.05
2023-04-27T10:34:24.166Z,50.54
2023-04-27T10:35:33.799Z,50.74
2023-04-27T10:36:24.421Z,50.23
2023-04-27T10:37:25.648Z,50.26
2023-04-27T10:38:24.084Z,48.94
2023-04-27T10:39:30.025Z,50.46
2023-04-27T10:40:25.056Z,49.62
2023-04-27T10:41:24.170Z,51.04
2023-04-27T10:42:24.038Z,48.82
2023-04-27T10:43:24.120Z,49.02
2023-04-27T10:44:24.027Z,49.65
2023-04-27T10:45:24.100Z,50.43
2023-04-27T10:46:24.017Z,49.73
2023-04-27T10:47:24.047Z,51.65
2023-04-27T10:48:24.112Z,51.83
2023-04-27T10:49:24.013Z,51.81
2023-04-27T10:50:23.966Z,50.38
2023-04-27T10:51:23.963Z,51.17
2023-04-27T10:52:23.998Z,50.54
2023-04-27T10:53:24.028Z,49.02
2023-04-27T10:54:24.056Z,50.24
2023-04-27T10:55:23.972Z,51.93
2023-04-27T10:56:23.943Z,50.70
2023-04-27T10:57:23.885Z,48.58
2023-04-27T10:58:24.163Z,47.67
2023-04-27T10:59:24.199Z,46.78
2023-04-27T11:00:23.955Z,46.70
2023-04-27T11:01:23.860Z,47.13
2023-04-27T11:02:23.931Z,48.67
2023-04-27T11:03:31.459Z,49.58
2023-04-27T11:04:23.812Z,50.16
2023-04-27T11:05:23.806Z,49.05
2023-04-27T11:06:23.781Z,47.25
2023-04-27T11:07:23.835Z,49.45
2023-04-27T11:08:23.758Z,51.86
2023-04-27T11:09:23.771Z,49.13
2023-04-27T11:10:23.733Z,48.52
2023-04-27T11:11:23.732Z,48.30
2023-04-27T11:12:23.712Z,49.10
2023-04-27T11:13:23.760Z,47.97
2023-04-27T11:14:23.736Z,50.80
2023-04-27T11:15:23.679Z,47.97
2023-04-27T11:16:23.752Z,50.59
2023-04-27T11:17:23.684Z,49.89
2023-04-27T11:18:23.670Z,46.86
2023-04-27T11:19:23.668Z,50.82
2023-04-27T11:20:23.631Z,50.52
2023-04-27T11:21:23.608Z,49.79
2023-04-27T11:22:23.620Z,48.98
2023-04-27T11:23:23.582Z,49.69
2023-04-27T11:24:23.634Z,48.50
2023-04-27T11:25:23.575Z,49.71
2023-04-27T11:26:23.556Z,48.17
2023-04-27T11:27:23.570Z,48.98
2023-04-27T11:28:23.531Z,49.81
2023-04-27T11:29:23.524Z,51.30
2023-04-27T11:30:23.523Z,49.08
2023-04-27T11:31:23.568Z,48.78
2023-04-27T11:32:23.558Z,47.95
2023-04-27T11:33:23.482Z,48.65
2023-04-27T11:34:23.466Z,46.96
2023-04-27T11:35:23.479Z,47.11
2023-04-27T11:36:23.452Z,48.90
2023-04-27T11:37:23.473Z,49.71
2023-04-27T11:38:23.540Z,48.88
2023-04-27T11:39:23.828Z,46.96
2023-04-27T11:40:24.630Z,50.67
2023-04-27T11:41:23.447Z,48.75
2023-04-27T11:42:23.383Z,48.13
2023-04-27T11:43:23.381Z,47.85
2023-04-27T11:44:23.383Z,48.75
2023-04-27T11:45:23.350Z,48.85
2023-04-27T11:46:23.386Z,48.25
2023-04-27T11:47:23.368Z,48.53
2023-04-27T11:48:23.327Z,47.95
2023-04-27T11:49:23.335Z,48.75
2023-04-27T11:50:23.299Z,48.75
2023-04-27T11:51:23.285Z,47.54
2023-04-27T11:52:23.300Z,46.94
2023-04-27T11:53:23.316Z,48.47
2023-04-27T11:54:23.258Z,48.47
2023-04-27T11:55:23.241Z,48.88
2023-04-27T11:56:23.247Z,49.89
2023-04-27T11:57:23.229Z,48.96
2023-04-27T11:58:23.236Z,49.76
2023-04-27T11:59:23.192Z,48.43
2023-04-27T12:00:23.186Z,47.32
2023-04-27T12:01:34.749Z,48.22
2023-04-27T12:02:24.309Z,48.33
2023-04-27T12:03:23.467Z,48.00
2023-04-27T12:04:23.222Z,47.60
2023-04-27T12:05:23.352Z,46.51
2023-04-27T12:07:23.135Z,47.85
2023-04-27T12:08:23.103Z,47.64
2023-04-27T12:09:23.125Z,46.43
2023-04-27T12:10:23.078Z,47.77
2023-04-27T12:11:23.082Z,46.96
2023-04-27T12:12:23.058Z,48.17
2023-04-27T12:13:23.063Z,49.08
2023-04-27T12:14:23.035Z,48.98
2023-04-27T12:15:23.066Z,48.37
2023-04-27T12:16:23.157Z,48.98
2023-04-27T12:17:23.063Z,48.68
2023-04-27T12:18:23.002Z,49.08
2023-04-27T12:19:22.974Z,46.98
2023-04-27T12:20:23.004Z,47.79
2023-04-27T12:21:22.980Z,48.19
2023-04-27T12:22:22.948Z,48.90
2023-04-27T12:23:22.937Z,48.70
2023-04-27T12:24:22.925Z,48.70
2023-04-27T12:25:22.916Z,48.93
2023-04-27T12:26:22.941Z,48.22
2023-04-27T12:27:22.909Z,48.22
2023-04-27T12:28:22.882Z,48.11
2023-04-27T12:29:23.005Z,48.80
2023-04-27T12:30:22.884Z,46.07
2023-04-27T12:31:24.155Z,46.80
2023-04-27T12:32:22.858Z,47.71
2023-04-27T12:33:22.999Z,46.91
2023-04-27T12:34:22.878Z,48.11
2023-04-27T12:35:22.816Z,50.64
2023-04-27T12:36:22.806Z,48.80
2023-04-27T12:37:24.885Z,48.10
2023-04-27T12:38:22.774Z,48.17
2023-04-27T12:39:22.816Z,47.77
2023-04-27T12:40:22.870Z,46.68
2023-04-27T12:41:22.734Z,48.10
2023-04-27T12:42:22.730Z,47.79
2023-04-27T12:43:22.736Z,50.52
2023-04-27T12:44:22.724Z,50.92
2023-04-27T12:45:22.745Z,47.67
2023-04-27T12:46:22.826Z,48.78
2023-04-27T12:47:45.930Z,48.98
2023-04-27T12:48:23.785Z,47.85
2023-04-27T12:49:22.677Z,47.04
2023-04-27T12:50:22.649Z,50.47
2023-04-27T12:51:22.641Z,49.04
2023-04-27T12:52:22.633Z,48.30
2023-04-27T12:53:22.616Z,48.71
2023-04-27T12:54:22.598Z,46.59